Terminal Aerodrome Forecast
Issued by NWS

Home | Current Version | Previous Version | Text Only | Print | Product List | Glossary On
Versions: 1 2 3 4 5 6 7 8 9 10 11 12 13 14 15 16 17 18 19 20 21 22 23 24 25
538
FTUS45 KRIW 220539
TAFRKS
TAF
KRKS 220539Z 2206/2306 27015KT P6SM SCT150
     FM221200 25010KT P6SM SCT150
     FM222000 20010KT P6SM SCT050 BKN100
     FM230200 17010KT P6SM VCSH SCT030 BKN050
     FM230400 20011KT 5SM -SN BKN030=

USA.gov is the U.S. government's official web portal to all federal, state and local government web resources and services.